createdAt,value
2017-12-17T00:00:21.263Z,0.00
2017-12-17T00:01:21.636Z,0.00
2017-12-17T00:02:22.062Z,0.00
2017-12-17T00:03:22.476Z,0.00
2017-12-17T00:04:44.054Z,0.00
2017-12-17T00:05:23.318Z,0.00
2017-12-17T00:06:23.742Z,0.00
2017-12-17T00:07:24.171Z,0.00
2017-12-17T00:08:24.595Z,0.00
2017-12-17T00:09:25.006Z,0.00
2017-12-17T00:10:46.597Z,0.00
2017-12-17T00:11:25.839Z,0.00
2017-12-17T00:12:26.259Z,0.00
2017-12-17T00:13:26.718Z,0.00
2017-12-17T00:14:27.102Z,0.00
2017-12-17T00:15:27.526Z,0.00
2017-12-17T00:16:49.120Z,0.00
2017-12-17T00:17:28.373Z,0.00
2017-12-17T00:18:28.789Z,0.00
2017-12-17T00:19:29.213Z,0.00
2017-12-17T00:20:29.618Z,0.00
2017-12-17T00:21:30.051Z,0.00
2017-12-17T00:22:51.613Z,0.00
2017-12-17T00:23:30.878Z,0.00
2017-12-17T00:24:31.314Z,0.00
2017-12-17T00:25:31.727Z,0.00
2017-12-17T00:26:32.148Z,0.00
2017-12-17T00:27:32.599Z,93.18
2017-12-17T00:28:54.145Z,93.56
2017-12-17T00:29:33.402Z,93.08
2017-12-17T00:30:33.832Z,93.37
2017-12-17T00:31:34.248Z,93.46
2017-12-17T00:32:34.670Z,93.56
2017-12-17T00:33:35.081Z,92.52
2017-12-17T00:34:56.665Z,91.76
2017-12-17T00:35:35.926Z,91.57
2017-12-17T00:36:36.342Z,91.85
2017-12-17T00:37:36.778Z,92.42
2017-12-17T00:38:37.187Z,92.99
2017-12-17T00:39:37.605Z,93.46
2017-12-17T00:40:59.186Z,94.04
2017-12-17T00:41:38.443Z,93.94
2017-12-17T00:42:38.866Z,93.18
2017-12-17T00:43:39.293Z,92.33
2017-12-17T00:44:39.762Z,92.71
2017-12-17T00:45:40.129Z,92.99
2017-12-17T00:47:01.738Z,92.99
2017-12-17T00:47:40.961Z,92.80
2017-12-17T00:48:41.379Z,93.18
2017-12-17T00:49:41.817Z,92.99
2017-12-17T00:50:42.238Z,93.08
2017-12-17T00:51:42.640Z,93.46
2017-12-17T00:53:04.238Z,93.46
2017-12-17T00:53:43.485Z,93.84
2017-12-17T00:54:43.903Z,93.84
2017-12-17T00:55:44.340Z,93.94
2017-12-17T00:56:44.779Z,93.94
2017-12-17T00:57:45.161Z,93.37
2017-12-17T00:59:06.741Z,93.27
2017-12-17T00:59:46.013Z,92.71
2017-12-17T01:00:46.435Z,92.61
2017-12-17T01:01:46.855Z,92.90
2017-12-17T01:02:47.276Z,92.14
2017-12-17T01:03:47.693Z,91.95
2017-12-17T01:05:09.263Z,91.76
2017-12-17T01:05:48.526Z,91.57
2017-12-17T01:06:48.943Z,91.57
2017-12-17T01:07:49.368Z,91.09
2017-12-17T01:08:49.808Z,92.23
2017-12-17T01:09:50.210Z,91.95
2017-12-17T01:11:11.795Z,91.76
2017-12-17T01:11:51.052Z,92.33
2017-12-17T01:12:51.469Z,92.33
2017-12-17T01:13:51.885Z,92.14
2017-12-17T01:14:52.304Z,92.14
2017-12-17T01:15:52.725Z,92.61
2017-12-17T01:17:14.308Z,92.42
2017-12-17T01:17:53.584Z,93.08
2017-12-17T01:18:53.993Z,92.99
2017-12-17T01:19:54.411Z,93.46
2017-12-17T01:20:54.864Z,93.18
2017-12-17T01:21:55.259Z,92.99
2017-12-17T01:23:16.833Z,93.18
2017-12-17T01:23:56.087Z,92.90
2017-12-17T01:24:56.505Z,92.90
2017-12-17T01:25:56.924Z,93.08
2017-12-17T01:26:57.358Z,92.90
2017-12-17T01:27:57.781Z,92.61
2017-12-17T01:29:19.359Z,92.71
2017-12-17T01:29:58.620Z,92.71
2017-12-17T01:30:59.041Z,92.80
2017-12-17T01:31:59.454Z,93.37
2017-12-17T01:32:59.873Z,92.61
2017-12-17T01:34:00.299Z,93.18
2017-12-17T01:35:21.887Z,93.46
2017-12-17T01:36:01.144Z,93.46
2017-12-17T01:37:01.566Z,93.18
2017-12-17T01:38:01.981Z,92.71
2017-12-17T01:39:02.426Z,91.76
2017-12-17T01:40:02.820Z,92.33
2017-12-17T01:41:24.392Z,92.42
2017-12-17T01:42:03.660Z,92.04
2017-12-17T01:43:04.088Z,91.57
2017-12-17T01:44:04.514Z,91.66
2017-12-17T01:45:04.927Z,91.47
2017-12-17T01:46:05.338Z,92.14
2017-12-17T01:47:26.924Z,92.04
2017-12-17T01:48:06.183Z,91.76
2017-12-17T01:49:06.602Z,91.57
2017-12-17T01:50:07.018Z,91.76
2017-12-17T01:51:07.455Z,91.57
2017-12-17T01:52:07.879Z,92.14
2017-12-17T01:53:29.446Z,92.04
2017-12-17T01:54:08.714Z,92.14
2017-12-17T01:55:09.130Z,92.61
2017-12-17T01:56:09.539Z,92.99
2017-12-17T01:57:09.972Z,92.99
2017-12-17T01:58:10.387Z,92.80
2017-12-17T01:59:31.964Z,92.23
2017-12-17T02:00:11.228Z,91.85
2017-12-17T02:01:11.653Z,92.14
2017-12-17T02:02:12.072Z,91.57
2017-12-17T02:03:12.491Z,91.57
2017-12-17T02:04:12.914Z,92.14
2017-12-17T02:05:34.485Z,91.57
2017-12-17T02:06:13.747Z,91.47
2017-12-17T02:07:14.168Z,91.76
2017-12-17T02:08:14.595Z,92.23
2017-12-17T02:09:15.008Z,92.04
2017-12-17T02:10:15.430Z,91.85
2017-12-17T02:11:36.999Z,92.04
2017-12-17T02:12:16.271Z,91.57
2017-12-17T02:13:16.702Z,92.23
2017-12-17T02:14:17.115Z,91.95
2017-12-17T02:15:17.536Z,92.23
2017-12-17T02:16:17.954Z,92.99
2017-12-17T02:17:39.537Z,92.99
2017-12-17T02:18:18.799Z,93.46
2017-12-17T02:19:19.212Z,93.37
2017-12-17T02:20:19.632Z,93.75
2017-12-17T02:21:20.057Z,93.75
2017-12-17T02:22:20.478Z,94.13
2017-12-17T02:23:42.051Z,94.79
2017-12-17T02:24:21.322Z,94.51
2017-12-17T02:25:21.732Z,94.60
2017-12-17T02:26:22.162Z,94.51
2017-12-17T02:27:22.585Z,94.60
2017-12-17T02:28:22.991Z,94.60
2017-12-17T02:29:44.577Z,93.84
2017-12-17T02:30:23.840Z,93.46
2017-12-17T02:31:24.267Z,93.08
2017-12-17T02:32:24.677Z,92.80
2017-12-17T02:33:25.104Z,92.90
2017-12-17T02:34:25.519Z,92.14
2017-12-17T02:35:47.099Z,92.04
2017-12-17T02:36:26.359Z,91.95
2017-12-17T02:37:26.783Z,91.57
2017-12-17T02:38:27.200Z,91.66
2017-12-17T02:39:27.618Z,91.38
2017-12-17T02:40:28.047Z,90.43
2017-12-17T02:41:49.621Z,91.09
2017-12-17T02:42:28.879Z,90.24
2017-12-17T02:43:29.302Z,89.67
2017-12-17T02:44:29.719Z,88.73
2017-12-17T02:45:30.133Z,88.06
2017-12-17T02:46:30.557Z,88.25
2017-12-17T02:47:52.139Z,88.54
2017-12-17T02:48:31.402Z,89.11
2017-12-17T02:49:31.833Z,89.77
2017-12-17T02:50:32.244Z,89.48
2017-12-17T02:51:32.662Z,89.67
2017-12-17T02:52:33.089Z,90.24
2017-12-17T02:53:54.664Z,90.05
2017-12-17T02:54:33.916Z,90.34
2017-12-17T02:55:34.339Z,90.34
2017-12-17T02:56:34.764Z,90.34
2017-12-17T02:57:35.177Z,89.67
2017-12-17T02:58:35.611Z,89.11
2017-12-17T02:59:57.176Z,88.44
2017-12-17T03:00:36.450Z,88.06
2017-12-17T03:01:36.870Z,88.44
2017-12-17T03:02:37.287Z,88.35
2017-12-17T03:03:37.714Z,89.39
2017-12-17T03:04:38.123Z,90.15
2017-12-17T03:05:59.698Z,89.77
2017-12-17T03:06:38.968Z,89.48
2017-12-17T03:07:39.386Z,89.34
2017-12-17T03:08:39.794Z,89.15
2017-12-17T03:09:40.303Z,89.72
2017-12-17T03:10:40.641Z,89.63
2017-12-17T03:12:02.217Z,90.67
2017-12-17T03:12:41.478Z,90.67
2017-12-17T03:13:41.901Z,91.90
2017-12-17T03:14:42.320Z,90.95
2017-12-17T03:15:42.786Z,91.33
2017-12-17T03:16:43.221Z,91.62
2017-12-17T03:18:04.736Z,91.52
2017-12-17T03:18:44.010Z,91.52
2017-12-17T03:19:44.463Z,92.94
2017-12-17T03:20:44.842Z,92.00
2017-12-17T03:21:45.259Z,91.71
2017-12-17T03:22:45.680Z,91.33
2017-12-17T03:24:07.255Z,92.09
2017-12-17T03:24:46.521Z,91.52
2017-12-17T03:25:46.939Z,90.58
2017-12-17T03:26:47.362Z,90.77
2017-12-17T03:27:47.787Z,90.77
2017-12-17T03:28:48.204Z,91.14
2017-12-17T03:30:09.782Z,90.77
2017-12-17T03:30:49.045Z,89.44
2017-12-17T03:31:49.456Z,88.59
2017-12-17T03:32:49.876Z,87.64
2017-12-17T03:33:50.314Z,85.93
2017-12-17T03:34:50.728Z,86.03
2017-12-17T03:36:12.285Z,86.12
2017-12-17T03:36:51.557Z,85.84
2017-12-17T03:37:51.985Z,85.84
2017-12-17T03:38:52.399Z,85.55
2017-12-17T03:39:52.812Z,84.51
2017-12-17T03:40:53.234Z,84.80
2017-12-17T03:42:14.815Z,84.99
2017-12-17T03:42:54.087Z,84.99
2017-12-17T03:43:54.490Z,85.74
2017-12-17T03:44:54.907Z,85.36
2017-12-17T03:45:55.343Z,84.99
2017-12-17T03:46:55.745Z,85.36
2017-12-17T03:48:17.336Z,86.22
2017-12-17T03:48:56.612Z,85.84
2017-12-17T03:49:57.016Z,85.84
2017-12-17T03:50:57.433Z,85.93
2017-12-17T03:51:57.851Z,85.93
2017-12-17T03:52:58.263Z,86.03
2017-12-17T03:54:19.843Z,86.03
2017-12-17T03:54:59.106Z,86.41
2017-12-17T03:55:59.527Z,86.88
2017-12-17T03:56:59.952Z,87.83
2017-12-17T03:58:00.391Z,87.26
2017-12-17T03:59:00.800Z,86.88
2017-12-17T04:00:22.375Z,86.31
2017-12-17T04:01:01.644Z,86.60
2017-12-17T04:02:02.049Z,86.22
2017-12-17T04:03:02.467Z,86.50
2017-12-17T04:04:02.903Z,86.88
2017-12-17T04:05:03.302Z,87.54
2017-12-17T04:06:24.878Z,87.35
2017-12-17T04:07:04.139Z,87.26
2017-12-17T04:08:04.562Z,87.83
2017-12-17T04:09:05.010Z,87.26
2017-12-17T04:10:05.448Z,88.11
2017-12-17T04:11:05.817Z,89.25
2017-12-17T04:12:27.398Z,89.15
2017-12-17T04:13:06.664Z,89.15
2017-12-17T04:14:07.084Z,89.63
2017-12-17T04:15:07.499Z,89.25
2017-12-17T04:16:07.917Z,89.72
2017-12-17T04:17:08.375Z,90.10
2017-12-17T04:18:29.913Z,89.91
2017-12-17T04:19:09.178Z,89.63
2017-12-17T04:20:09.597Z,89.63
2017-12-17T04:21:10.023Z,89.82
2017-12-17T04:22:10.452Z,89.63
2017-12-17T04:23:10.853Z,88.40
2017-12-17T04:24:32.431Z,87.64
2017-12-17T04:25:11.696Z,88.21
2017-12-17T04:26:12.117Z,88.59
2017-12-17T04:27:12.534Z,88.11
2017-12-17T04:28:12.979Z,87.35
2017-12-17T04:29:13.380Z,88.02
2017-12-17T04:30:34.954Z,88.11
2017-12-17T04:31:14.214Z,87.54
2017-12-17T04:32:14.630Z,86.98
2017-12-17T04:33:15.050Z,87.83
2017-12-17T04:34:15.467Z,87.26
2017-12-17T04:35:15.895Z,87.64
2017-12-17T04:36:37.465Z,87.45
2017-12-17T04:37:16.728Z,88.30
2017-12-17T04:38:17.150Z,88.40
2017-12-17T04:39:17.572Z,88.11
2017-12-17T04:40:17.985Z,87.83
2017-12-17T04:41:18.409Z,87.64
2017-12-17T04:42:40.033Z,88.11
2017-12-17T04:43:19.246Z,87.54
2017-12-17T04:44:19.682Z,86.88
2017-12-17T04:45:20.095Z,86.60
2017-12-17T04:46:20.514Z,86.79
2017-12-17T04:47:20.930Z,87.54
2017-12-17T04:48:42.512Z,88.21
2017-12-17T04:49:21.767Z,89.25
2017-12-17T04:50:22.191Z,89.63
2017-12-17T04:51:22.654Z,90.77
2017-12-17T04:52:23.026Z,90.95
2017-12-17T04:53:23.441Z,91.33
2017-12-17T04:54:45.021Z,91.33
2017-12-17T04:55:24.287Z,90.86
2017-12-17T04:56:24.704Z,90.77
2017-12-17T04:57:25.129Z,90.86
2017-12-17T04:58:25.544Z,90.29
2017-12-17T04:59:25.966Z,91.24
2017-12-17T05:00:47.574Z,90.58
2017-12-17T05:01:26.797Z,90.48
2017-12-17T05:02:27.223Z,90.77
2017-12-17T05:03:27.643Z,90.77
2017-12-17T05:04:28.066Z,90.95
2017-12-17T05:05:28.476Z,90.77
2017-12-17T05:06:50.052Z,91.24
2017-12-17T05:07:29.329Z,90.86
2017-12-17T05:08:29.747Z,90.86
2017-12-17T05:09:30.165Z,91.24
2017-12-17T05:10:30.589Z,91.62
2017-12-17T05:11:31.013Z,91.62
2017-12-17T05:12:52.578Z,91.62
2017-12-17T05:13:31.844Z,92.19
2017-12-17T05:14:32.268Z,91.90
2017-12-17T05:15:32.687Z,92.28
2017-12-17T05:16:33.128Z,92.52
2017-12-17T05:17:33.525Z,92.43
2017-12-17T05:18:55.095Z,92.43
2017-12-17T05:19:34.366Z,93.18
2017-12-17T05:20:34.786Z,93.56
2017-12-17T05:21:35.198Z,93.94
2017-12-17T05:22:35.614Z,93.46
2017-12-17T05:23:36.034Z,93.18
2017-12-17T05:24:57.611Z,93.56
2017-12-17T05:25:36.886Z,93.65
2017-12-17T05:26:37.317Z,93.27
2017-12-17T05:27:37.718Z,93.65
2017-12-17T05:28:38.139Z,93.37
2017-12-17T05:29:38.556Z,93.27
2017-12-17T05:31:00.138Z,91.95
2017-12-17T05:31:39.443Z,92.05
2017-12-17T05:32:39.899Z,91.76
2017-12-17T05:33:40.232Z,92.43
2017-12-17T05:34:40.650Z,91.57
2017-12-17T05:35:41.067Z,91.67
2017-12-17T05:37:02.639Z,91.10
2017-12-17T05:37:41.904Z,91.19
2017-12-17T05:38:42.324Z,90.53
2017-12-17T05:39:42.754Z,90.34
2017-12-17T05:40:43.184Z,90.34
2017-12-17T05:41:43.587Z,89.20
2017-12-17T05:43:05.161Z,89.87
2017-12-17T05:43:44.422Z,89.49
2017-12-17T05:44:44.843Z,89.20
2017-12-17T05:45:45.268Z,89.01
2017-12-17T05:46:45.679Z,88.82
2017-12-17T05:47:46.102Z,89.39
2017-12-17T05:49:07.671Z,88.07
2017-12-17T05:49:46.940Z,88.64
2017-12-17T05:50:47.368Z,89.11
2017-12-17T05:51:47.784Z,89.01
2017-12-17T05:52:48.201Z,89.01
2017-12-17T05:53:48.618Z,89.58
2017-12-17T05:55:10.218Z,89.39
2017-12-17T05:55:49.463Z,89.68
2017-12-17T05:56:49.874Z,89.49
2017-12-17T05:57:50.291Z,89.72
2017-12-17T05:58:50.714Z,90.06
2017-12-17T05:59:51.134Z,89.39
2017-12-17T06:01:12.705Z,89.20
2017-12-17T06:01:51.976Z,89.39
2017-12-17T06:02:52.399Z,88.26
2017-12-17T06:03:52.818Z,88.35
2017-12-17T06:04:53.236Z,88.54
2017-12-17T06:05:53.656Z,87.98
2017-12-17T06:07:15.230Z,88.17
2017-12-17T06:07:54.484Z,87.59
2017-12-17T06:08:54.906Z,87.59
2017-12-17T06:09:55.337Z,87.98
2017-12-17T06:10:55.751Z,88.35
2017-12-17T06:11:56.157Z,88.45
2017-12-17T06:13:17.734Z,88.26
2017-12-17T06:13:57.013Z,87.98
2017-12-17T06:14:57.430Z,87.88
2017-12-17T06:15:57.844Z,87.98
2017-12-17T06:16:58.264Z,88.54
2017-12-17T06:17:58.693Z,88.45
2017-12-17T06:19:20.274Z,88.17
2017-12-17T06:19:59.523Z,87.88
2017-12-17T06:20:59.935Z,88.17
2017-12-17T06:22:00.365Z,88.26
2017-12-17T06:23:00.774Z,88.17
2017-12-17T06:24:01.196Z,88.35
2017-12-17T06:25:22.772Z,88.54
2017-12-17T06:26:02.035Z,88.54
2017-12-17T06:27:02.454Z,89.20
2017-12-17T06:28:02.876Z,88.92
2017-12-17T06:29:03.289Z,88.35
2017-12-17T06:30:03.717Z,88.26
2017-12-17T06:31:25.295Z,89.30
2017-12-17T06:32:04.557Z,89.30
2017-12-17T06:33:04.966Z,90.34
2017-12-17T06:34:05.384Z,90.81
2017-12-17T06:35:05.804Z,90.63
2017-12-17T06:36:06.222Z,90.44
2017-12-17T06:37:27.800Z,90.63
2017-12-17T06:38:07.064Z,90.34
2017-12-17T06:39:07.478Z,90.15
2017-12-17T06:40:07.910Z,90.44
2017-12-17T06:41:08.326Z,90.63
2017-12-17T06:42:08.745Z,90.91
2017-12-17T06:43:30.322Z,91.48
2017-12-17T06:44:09.592Z,92.05
2017-12-17T06:45:09.999Z,93.18
2017-12-17T06:46:10.427Z,93.27
2017-12-17T06:47:10.841Z,93.18
2017-12-17T06:48:11.258Z,93.18
2017-12-17T06:49:32.832Z,92.71
2017-12-17T06:50:12.155Z,93.27
2017-12-17T06:51:12.523Z,93.27
2017-12-17T06:52:12.933Z,93.27
2017-12-17T06:53:13.354Z,92.71
2017-12-17T06:54:13.772Z,92.71
2017-12-17T06:55:35.355Z,92.71
2017-12-17T06:56:14.615Z,93.08
2017-12-17T06:57:15.036Z,93.08
2017-12-17T06:58:15.455Z,93.46
2017-12-17T06:59:15.880Z,93.84
2017-12-17T07:00:16.286Z,93.37
2017-12-17T07:01:37.863Z,93.84
2017-12-17T07:02:17.128Z,93.75
2017-12-17T07:03:17.546Z,93.75
2017-12-17T07:04:17.960Z,93.75
2017-12-17T07:05:18.378Z,93.65
2017-12-17T07:06:18.803Z,93.37
2017-12-17T07:07:40.378Z,93.84
2017-12-17T07:08:19.639Z,93.37
2017-12-17T07:09:20.061Z,92.52
2017-12-17T07:10:20.564Z,93.65
2017-12-17T07:11:20.903Z,93.46
2017-12-17T07:12:21.329Z,93.18
2017-12-17T07:13:42.897Z,93.94
2017-12-17T07:14:22.156Z,94.04
2017-12-17T07:15:22.577Z,94.42
2017-12-17T07:16:22.994Z,94.60
2017-12-17T07:17:23.413Z,94.79
2017-12-17T07:18:23.840Z,95.74
2017-12-17T07:19:45.412Z,95.83
2017-12-17T07:20:24.681Z,94.79
2017-12-17T07:21:25.100Z,95.36
2017-12-17T07:22:25.518Z,95.93
2017-12-17T07:23:25.937Z,95.55
2017-12-17T07:24:26.354Z,95.55
2017-12-17T07:25:47.925Z,95.64
2017-12-17T07:26:27.190Z,95.55
2017-12-17T07:27:27.620Z,95.45
2017-12-17T07:28:28.039Z,95.55
2017-12-17T07:29:28.447Z,96.12
2017-12-17T07:30:28.868Z,96.12
2017-12-17T07:31:50.448Z,96.21
2017-12-17T07:32:29.719Z,96.02
2017-12-17T07:33:30.139Z,96.21
2017-12-17T07:34:30.558Z,95.93
2017-12-17T07:35:30.969Z,95.93
2017-12-17T07:36:31.389Z,96.02
2017-12-17T07:37:52.966Z,95.74
2017-12-17T07:38:32.221Z,96.59
2017-12-17T07:39:32.641Z,96.78
2017-12-17T07:40:33.064Z,96.12
2017-12-17T07:41:33.484Z,95.74
2017-12-17T07:42:33.900Z,95.93
2017-12-17T07:43:55.474Z,95.36
2017-12-17T07:44:34.744Z,95.36
2017-12-17T07:45:35.161Z,96.02
2017-12-17T07:46:35.586Z,95.93
2017-12-17T07:47:36.006Z,96.21
2017-12-17T07:48:36.418Z,95.93
2017-12-17T07:49:57.994Z,95.45
2017-12-17T07:50:37.252Z,96.31
2017-12-17T07:51:37.689Z,96.02
2017-12-17T07:52:38.103Z,95.55
2017-12-17T07:53:38.524Z,96.02
2017-12-17T07:54:38.939Z,96.02
2017-12-17T07:56:00.507Z,95.45
2017-12-17T07:56:39.777Z,96.02
2017-12-17T07:57:40.204Z,95.93
2017-12-17T07:58:40.616Z,96.59
2017-12-17T07:59:41.056Z,96.59
2017-12-17T08:00:41.449Z,96.97
2017-12-17T08:02:03.019Z,96.97
2017-12-17T08:02:42.282Z,96.40
2017-12-17T08:03:42.720Z,96.88
2017-12-17T08:04:43.140Z,96.78
2017-12-17T08:05:43.555Z,96.02
2017-12-17T08:06:43.975Z,95.83
2017-12-17T08:08:05.549Z,94.70
2017-12-17T08:08:44.805Z,93.08
2017-12-17T08:09:45.234Z,91.57
2017-12-17T08:10:45.692Z,91.48
2017-12-17T08:11:46.063Z,91.38
2017-12-17T08:12:46.506Z,90.63
2017-12-17T08:14:08.061Z,89.39
2017-12-17T08:14:47.334Z,87.31
2017-12-17T08:15:47.748Z,86.93
2017-12-17T08:16:48.179Z,85.89
2017-12-17T08:17:48.581Z,85.04
2017-12-17T08:18:49.028Z,85.51
2017-12-17T08:20:10.591Z,85.32
2017-12-17T08:20:49.831Z,85.42
2017-12-17T08:21:50.320Z,84.94
2017-12-17T08:22:50.672Z,85.23
2017-12-17T08:23:51.104Z,85.94
2017-12-17T08:24:51.524Z,85.66
2017-12-17T08:26:13.113Z,85.51
2017-12-17T08:26:52.347Z,85.04
2017-12-17T08:27:52.784Z,85.89
2017-12-17T08:28:53.192Z,85.80
2017-12-17T08:29:53.615Z,85.61
2017-12-17T08:30:54.041Z,86.27
2017-12-17T08:32:15.606Z,87.12
2017-12-17T08:32:54.875Z,86.74
2017-12-17T08:33:55.290Z,87.50
2017-12-17T08:34:55.717Z,86.74
2017-12-17T08:35:56.124Z,85.99
2017-12-17T08:36:56.548Z,86.27
2017-12-17T08:38:18.121Z,86.36
2017-12-17T08:38:57.385Z,87.50
2017-12-17T08:39:57.811Z,87.31
2017-12-17T08:40:58.241Z,87.59
2017-12-17T08:41:58.647Z,88.45
2017-12-17T08:42:59.062Z,87.40
2017-12-17T08:44:20.641Z,86.93
2017-12-17T08:44:59.908Z,87.40
2017-12-17T08:46:00.324Z,86.65
2017-12-17T08:47:00.750Z,86.83
2017-12-17T08:48:01.180Z,87.69
2017-12-17T08:49:01.587Z,87.78
2017-12-17T08:50:23.161Z,87.88
2017-12-17T08:51:02.416Z,87.59
2017-12-17T08:52:02.841Z,87.02
2017-12-17T08:53:03.260Z,87.59
2017-12-17T08:54:03.682Z,87.59
2017-12-17T08:55:04.093Z,86.93
2017-12-17T08:56:25.669Z,87.12
2017-12-17T08:57:04.936Z,87.50
2017-12-17T08:58:05.359Z,87.69
2017-12-17T08:59:05.805Z,88.17
2017-12-17T09:00:06.213Z,88.35
2017-12-17T09:01:06.619Z,88.82
2017-12-17T09:02:28.198Z,89.87
2017-12-17T09:03:07.461Z,89.49
2017-12-17T09:04:07.877Z,89.58
2017-12-17T09:05:08.325Z,89.87
2017-12-17T09:06:08.726Z,90.63
2017-12-17T09:07:09.147Z,90.15
2017-12-17T09:08:30.711Z,90.06
2017-12-17T09:09:09.970Z,90.44
2017-12-17T09:10:10.399Z,89.49
2017-12-17T09:11:10.812Z,89.58
2017-12-17T09:12:11.251Z,89.58
2017-12-17T09:13:11.672Z,89.68
2017-12-17T09:14:33.231Z,89.87
2017-12-17T09:15:12.497Z,90.34
2017-12-17T09:16:12.929Z,90.15
2017-12-17T09:17:13.335Z,90.34
2017-12-17T09:18:13.755Z,90.72
2017-12-17T09:19:14.170Z,90.63
2017-12-17T09:20:35.745Z,91.52
2017-12-17T09:21:15.009Z,91.48
2017-12-17T09:22:15.428Z,92.71
2017-12-17T09:23:15.850Z,93.04
2017-12-17T09:24:16.270Z,93.18
2017-12-17T09:25:16.694Z,92.99
2017-12-17T09:26:38.266Z,93.08
2017-12-17T09:27:17.537Z,93.75
2017-12-17T09:28:17.958Z,93.65
2017-12-17T09:29:18.368Z,93.27
2017-12-17T09:30:18.790Z,92.71
2017-12-17T09:31:19.210Z,92.33
2017-12-17T09:32:40.785Z,93.75
2017-12-17T09:33:20.240Z,93.27
2017-12-17T09:34:20.470Z,93.56
2017-12-17T09:35:20.881Z,92.61
2017-12-17T09:36:21.325Z,93.08
2017-12-17T09:37:21.748Z,93.42
2017-12-17T09:38:43.317Z,93.32
2017-12-17T09:39:22.568Z,93.65
2017-12-17T09:40:23.004Z,93.80
2017-12-17T09:41:23.409Z,93.61
2017-12-17T09:42:23.828Z,94.32
2017-12-17T09:43:24.244Z,94.04
2017-12-17T09:44:45.825Z,93.37
2017-12-17T09:45:25.085Z,94.42
2017-12-17T09:46:25.510Z,93.75
2017-12-17T09:47:26.033Z,93.37
2017-12-17T09:48:26.354Z,93.75
2017-12-17T09:49:26.763Z,93.84
2017-12-17T09:50:48.346Z,93.61
2017-12-17T09:51:27.610Z,93.32
2017-12-17T09:52:28.027Z,93.13
2017-12-17T09:53:28.467Z,93.99
2017-12-17T09:54:28.880Z,95.79
2017-12-17T09:55:29.300Z,95.07
2017-12-17T09:56:50.865Z,94.42
2017-12-17T09:57:30.129Z,94.70
2017-12-17T09:58:30.546Z,94.04
2017-12-17T09:59:30.970Z,94.13
2017-12-17T10:00:31.383Z,93.56
2017-12-17T10:01:31.808Z,93.94
2017-12-17T10:02:53.384Z,93.84
2017-12-17T10:03:32.664Z,93.37
2017-12-17T10:04:33.078Z,93.94
2017-12-17T10:05:33.544Z,93.89
2017-12-17T10:06:33.913Z,93.75
2017-12-17T10:07:34.339Z,94.13
2017-12-17T10:08:55.912Z,93.75
2017-12-17T10:09:35.167Z,93.65
2017-12-17T10:10:35.582Z,94.79
2017-12-17T10:11:36.022Z,94.13
2017-12-17T10:12:36.450Z,94.23
2017-12-17T10:13:36.846Z,93.46
2017-12-17T10:14:58.438Z,93.94
2017-12-17T10:15:37.690Z,94.13
2017-12-17T10:16:38.113Z,94.79
2017-12-17T10:17:38.529Z,94.65
2017-12-17T10:18:38.950Z,95.45
2017-12-17T10:19:39.368Z,95.07
2017-12-17T10:21:00.941Z,95.93
2017-12-17T10:21:40.222Z,95.45
2017-12-17T10:22:40.633Z,94.98
2017-12-17T10:23:41.051Z,95.64
2017-12-17T10:24:41.473Z,95.07
2017-12-17T10:25:41.892Z,95.07
2017-12-17T10:27:03.463Z,94.98
2017-12-17T10:27:42.727Z,94.89
2017-12-17T10:28:43.140Z,95.55
2017-12-17T10:29:43.566Z,95.64
2017-12-17T10:30:43.987Z,94.51
2017-12-17T10:31:44.415Z,95.55
2017-12-17T10:33:05.989Z,95.36
2017-12-17T10:33:45.250Z,95.93
2017-12-17T10:34:45.687Z,95.64
2017-12-17T10:35:46.094Z,95.74
2017-12-17T10:36:46.513Z,96.12
2017-12-17T10:37:46.931Z,96.12
2017-12-17T10:39:08.501Z,96.02
2017-12-17T10:39:47.765Z,96.17
2017-12-17T10:40:48.185Z,96.26
2017-12-17T10:41:48.606Z,97.59
2017-12-17T10:42:49.123Z,98.91
2017-12-17T10:43:49.461Z,98.72
2017-12-17T10:45:11.026Z,99.77
2017-12-17T10:45:50.280Z,99.24
2017-12-17T10:46:50.697Z,99.15
2017-12-17T10:47:51.128Z,98.96
2017-12-17T10:48:51.551Z,99.58
2017-12-17T10:49:51.968Z,99.77
2017-12-17T10:51:13.554Z,99.52
2017-12-17T10:51:52.812Z,99.39
2017-12-17T10:52:53.231Z,99.58
2017-12-17T10:53:53.655Z,99.29
2017-12-17T10:54:54.150Z,99.77
2017-12-17T10:55:54.501Z,99.01
2017-12-17T10:57:16.072Z,99.86
2017-12-17T10:57:55.336Z,99.86
2017-12-17T10:58:55.752Z,99.20
2017-12-17T10:59:56.258Z,99.39
2017-12-17T11:00:56.603Z,99.99
2017-12-17T11:01:57.897Z,99.67
2017-12-17T11:03:18.595Z,99.96
2017-12-17T11:03:57.913Z,99.67
2017-12-17T11:04:58.290Z,99.99
2017-12-17T11:05:58.709Z,99.99
2017-12-17T11:06:59.126Z,99.39
2017-12-17T11:07:59.551Z,99.86
2017-12-17T11:09:21.135Z,99.82
2017-12-17T11:10:00.385Z,99.58
2017-12-17T11:11:00.802Z,99.53
2017-12-17T11:12:01.233Z,99.72
2017-12-17T11:13:01.655Z,99.63
2017-12-17T11:14:02.080Z,99.99
2017-12-17T11:15:23.734Z,99.99
2017-12-17T11:16:02.914Z,99.99
2017-12-17T11:17:03.345Z,99.99
2017-12-17T11:18:03.757Z,99.99
2017-12-17T11:19:04.193Z,99.99
2017-12-17T11:20:04.611Z,99.99
2017-12-17T11:21:26.189Z,99.99
2017-12-17T11:22:05.449Z,99.99
2017-12-17T11:23:05.863Z,99.99
2017-12-17T11:24:06.297Z,99.99
2017-12-17T11:25:06.728Z,99.99
2017-12-17T11:26:07.136Z,99.99
2017-12-17T11:27:28.711Z,99.99
2017-12-17T11:28:07.975Z,99.99
2017-12-17T11:29:08.388Z,99.99
2017-12-17T11:30:08.814Z,99.99
2017-12-17T11:31:09.230Z,99.99
2017-12-17T11:32:09.695Z,99.99
2017-12-17T11:33:31.237Z,99.99
2017-12-17T11:34:10.496Z,99.99
2017-12-17T11:35:10.916Z,99.99
2017-12-17T11:36:11.347Z,99.96
2017-12-17T11:37:11.764Z,99.99
2017-12-17T11:38:12.194Z,99.99
2017-12-17T11:39:33.771Z,99.99
2017-12-17T11:40:13.025Z,99.99
2017-12-17T11:41:13.467Z,99.96
2017-12-17T11:42:13.887Z,99.99
2017-12-17T11:43:14.282Z,99.99
2017-12-17T11:44:14.715Z,99.99
2017-12-17T11:45:36.298Z,99.99
2017-12-17T11:46:15.554Z,99.99
2017-12-17T11:47:15.972Z,99.99
2017-12-17T11:48:16.397Z,99.99
2017-12-17T11:49:16.825Z,99.99
2017-12-17T11:50:17.231Z,99.99
2017-12-17T11:51:38.805Z,99.99
2017-12-17T11:52:18.139Z,99.99
2017-12-17T11:53:18.509Z,99.86
2017-12-17T11:54:18.922Z,99.99
2017-12-17T11:55:19.342Z,99.99
2017-12-17T11:56:19.758Z,99.96
2017-12-17T11:57:41.331Z,99.99
2017-12-17T11:58:20.600Z,99.99
2017-12-17T11:59:21.041Z,99.99
2017-12-17T12:00:21.446Z,99.99
2017-12-17T12:01:21.864Z,99.99
2017-12-17T12:02:22.290Z,99.99
2017-12-17T12:03:43.867Z,99.99
2017-12-17T12:04:23.139Z,99.99
2017-12-17T12:05:23.553Z,99.99
2017-12-17T12:06:23.973Z,99.99
2017-12-17T12:07:24.386Z,99.99
2017-12-17T12:08:24.804Z,99.99
2017-12-17T12:09:46.383Z,99.77
2017-12-17T12:10:25.653Z,99.96
2017-12-17T12:11:26.064Z,99.99
2017-12-17T12:12:26.497Z,99.71
2017-12-17T12:13:26.909Z,99.99
2017-12-17T12:14:27.322Z,99.99
2017-12-17T12:15:48.897Z,99.81
2017-12-17T12:16:28.180Z,99.99
2017-12-17T12:17:28.580Z,99.99
2017-12-17T12:18:29.008Z,99.99
2017-12-17T12:19:29.430Z,99.90
2017-12-17T12:20:29.883Z,99.99
2017-12-17T12:21:51.434Z,99.99
2017-12-17T12:22:30.691Z,99.99
2017-12-17T12:23:31.102Z,99.99
2017-12-17T12:24:31.521Z,99.99
2017-12-17T12:25:31.942Z,99.99
2017-12-17T12:26:32.362Z,99.81
2017-12-17T12:27:54.039Z,99.99
2017-12-17T12:28:33.205Z,99.99
2017-12-17T12:29:33.632Z,99.99
2017-12-17T12:30:34.046Z,99.99
2017-12-17T12:31:34.462Z,99.90
2017-12-17T12:32:34.890Z,99.99
2017-12-17T12:33:56.462Z,99.81
2017-12-17T12:34:35.716Z,99.99
2017-12-17T12:35:36.136Z,99.99
2017-12-17T12:36:36.561Z,99.99
2017-12-17T12:37:36.978Z,99.99
2017-12-17T12:38:37.396Z,99.99
2017-12-17T12:39:58.978Z,99.67
2017-12-17T12:40:38.248Z,99.99
2017-12-17T12:41:38.661Z,99.71
2017-12-17T12:42:39.079Z,99.99
2017-12-17T12:43:39.497Z,99.99
2017-12-17T12:44:39.914Z,99.99
2017-12-17T12:46:01.497Z,99.71
2017-12-17T12:46:40.766Z,99.90
2017-12-17T12:47:41.171Z,99.99
2017-12-17T12:48:41.594Z,99.81
2017-12-17T12:49:42.016Z,99.81
2017-12-17T12:50:42.443Z,99.90
2017-12-17T12:52:04.020Z,99.99
2017-12-17T12:52:43.275Z,99.90
2017-12-17T12:53:43.696Z,99.99
2017-12-17T12:54:44.112Z,99.99
2017-12-17T12:55:44.538Z,99.77
2017-12-17T12:56:44.961Z,99.86
2017-12-17T12:58:06.537Z,99.99
2017-12-17T12:58:45.802Z,99.99